Time;durP1;ratioP1;P1;durP2;ratioP2;P2;SDS_P1;SDS_P2;PMS_P1;PMS_P2;Temp;Humidity;BMP_temperature;BMP_pressure;BME280_temperature;BME280_humidity;BME280_pressure;Samples;Min_cycle;Max_cycle;Signal;HPM_P1;HPM_P2
2023/10/18 00:02:55;;;;;;;3.23;2.07;;;15.90;68.40;;;;;;5022426;28;20257;-60
2023/10/18 00:05:24;;;;;;;5.00;2.00;;;15.90;68.40;;;;;;5024566;28;20279;-60
2023/10/18 00:07:57;;;;;;;4.63;2.40;;;15.90;68.20;;;;;;5031030;28;20208;-61
2023/10/18 00:10:26;;;;;;;5.17;2.37;;;15.90;68.00;;;;;;5026758;28;20250;-60
2023/10/18 00:12:55;;;;;;;6.27;2.20;;;15.90;68.00;;;;;;5026546;28;20215;-60
2023/10/18 00:15:26;;;;;;;12.27;2.47;;;15.90;68.00;;;;;;5026574;28;20195;-62
2023/10/18 00:17:55;;;;;;;6.87;2.00;;;15.90;68.00;;;;;;5029633;28;20271;-60
2023/10/18 00:20:26;;;;;;;3.80;2.03;;;15.90;68.30;;;;;;5029363;28;20257;-60
2023/10/18 00:22:56;;;;;;;2.67;1.93;;;15.90;69.00;;;;;;5021649;28;20220;-60
2023/10/18 00:25:23;;;;;;;9.93;2.43;;;15.90;69.40;;;;;;5026422;28;20293;-60
2023/10/18 00:27:50;;;;;;;4.63;1.97;;;16.00;69.80;;;;;;5022588;28;20265;-60
2023/10/18 00:30:18;;;;;;;9.23;2.43;;;16.00;70.00;;;;;;5029709;28;20204;-60
2023/10/18 00:32:46;;;;;;;3.77;1.70;;;16.00;70.00;;;;;;5024405;28;20273;-59
2023/10/18 00:35:18;;;;;;;5.03;1.90;;;16.00;70.20;;;;;;5023996;28;20215;-60
2023/10/18 00:37:54;;;;;;;6.17;1.93;;;16.00;70.50;;;;;;5002309;28;20222;-60
2023/10/18 00:43:19;;;;;;;6.07;2.00;;;16.00;71.10;;;;;;5006634;28;20243;-60
2023/10/18 00:45:51;;;;;;;2.63;1.90;;;15.90;71.70;;;;;;5023522;28;20208;-60
2023/10/18 00:48:28;;;;;;;4.23;2.17;;;15.90;72.10;;;;;;5014932;28;20200;-60
2023/10/18 00:50:58;;;;;;;3.17;2.00;;;15.90;72.90;;;;;;5022647;28;20200;-60
2023/10/18 00:53:26;;;;;;;5.63;2.43;;;15.80;73.00;;;;;;5007123;28;20586;-60
2023/10/18 00:55:59;;;;;;;5.50;2.30;;;15.80;73.40;;;;;;5030158;28;20647;-60
2023/10/18 00:58:31;;;;;;;3.80;2.53;;;15.70;73.50;;;;;;5022480;28;20754;-60
2023/10/18 01:01:09;;;;;;;6.40;3.07;;;15.70;73.50;;;;;;5023760;28;20207;-61
2023/10/18 01:03:45;;;;;;;2.60;2.23;;;15.70;73.90;;;;;;5013654;28;20791;-61
2023/10/18 01:06:20;;;;;;;5.87;2.77;;;15.60;73.80;;;;;;5022539;28;20219;-61
2023/10/18 01:08:48;;;;;;;5.00;2.60;;;15.50;73.90;;;;;;5012094;28;20276;-60
2023/10/18 01:11:23;;;;;;;3.47;2.30;;;15.50;73.90;;;;;;5008349;28;20287;-61
2023/10/18 01:13:55;;;;;;;3.23;2.87;;;15.40;73.70;;;;;;5025846;28;20270;-60
2023/10/18 01:16:23;;;;;;;6.53;2.77;;;15.40;73.50;;;;;;5020910;28;20274;-60
2023/10/18 01:18:53;;;;;;;6.13;2.80;;;15.40;73.40;;;;;;5025236;28;20200;-60
2023/10/18 01:21:21;;;;;;;8.10;3.97;;;15.40;73.10;;;;;;5025587;28;20270;-60
2023/10/18 01:23:49;;;;;;;3.87;2.47;;;15.40;73.20;;;;;;5012390;28;20219;-61
2023/10/18 01:26:26;;;;;;;4.00;2.33;;;15.40;74.30;;;;;;5022395;28;20225;-60
2023/10/18 01:28:59;;;;;;;4.90;2.73;;;15.40;74.50;;;;;;5024465;28;20260;-60
2023/10/18 01:31:29;;;;;;;3.70;2.17;;;15.40;75.10;;;;;;5025689;28;20199;-60
2023/10/18 01:33:57;;;;;;;6.90;2.87;;;15.40;75.60;;;;;;5009522;28;20213;-60
2023/10/18 01:36:30;;;;;;;2.83;2.53;;;15.40;75.30;;;;;;5023733;28;20626;-61
2023/10/18 01:39:00;;;;;;;5.03;3.13;;;15.30;74.80;;;;;;5027499;28;21069;-60
2023/10/18 01:44:06;;;;;;;6.30;3.33;;;15.30;74.20;;;;;;5025575;28;20276;-60
2023/10/18 01:46:35;;;;;;;7.53;3.43;;;15.30;74.20;;;;;;5022979;28;20220;-60
2023/10/18 01:49:06;;;;;;;8.10;3.70;;;15.30;74.00;;;;;;5012372;28;20536;-61
2023/10/18 01:51:33;;;;;;;6.20;3.37;;;15.30;73.30;;;;;;5025191;28;20558;-60
2023/10/18 01:54:06;;;;;;;6.93;3.87;;;15.20;73.00;;;;;;5019781;28;20203;-60
2023/10/18 01:56:35;;;;;;;10.10;4.40;;;15.20;73.10;;;;;;5024803;28;20238;-61
2023/10/18 01:59:04;;;;;;;6.83;4.43;;;15.10;72.50;;;;;;5008835;28;20208;-60
2023/10/18 02:01:32;;;;;;;12.73;4.53;;;15.10;72.30;;;;;;5012558;28;20266;-60
2023/10/18 02:04:00;;;;;;;6.20;4.50;;;15.20;72.10;;;;;;5016715;28;20641;-61
2023/10/18 02:06:27;;;;;;;7.70;4.80;;;15.20;72.00;;;;;;5022741;28;20246;-60
2023/10/18 02:08:55;;;;;;;9.17;4.50;;;15.20;71.80;;;;;;5011508;28;20637;-60
2023/10/18 02:11:22;;;;;;;9.13;3.93;;;15.20;71.70;;;;;;5025503;28;20682;-60
2023/10/18 02:13:50;;;;;;;5.57;3.53;;;15.20;71.40;;;;;;5022146;28;20244;-60
2023/10/18 02:16:19;;;;;;;9.87;3.50;;;15.20;71.30;;;;;;5009873;28;20210;-60
2023/10/18 02:18:48;;;;;;;10.80;4.43;;;15.20;71.50;;;;;;5021532;28;20540;-60
2023/10/18 02:21:21;;;;;;;6.03;4.60;;;15.10;71.60;;;;;;5009522;28;20294;-61
2023/10/18 02:23:51;;;;;;;8.10;5.30;;;15.10;70.90;;;;;;5010649;28;20214;-60
2023/10/18 02:29:11;;;;;;;8.50;6.03;;;15.00;69.80;;;;;;5025129;28;20506;-60
2023/10/18 02:31:40;;;;;;;7.97;5.60;;;15.00;69.70;;;;;;5010466;28;20200;-60
2023/10/18 02:34:14;;;;;;;9.57;5.07;;;15.00;69.40;;;;;;5021206;28;20196;-63
2023/10/18 02:36:58;;;;;;;7.87;5.50;;;15.00;69.20;;;;;;5021320;28;20368;-60
2023/10/18 02:39:27;;;;;;;8.50;5.33;;;15.00;69.20;;;;;;5018930;28;20228;-60
2023/10/18 02:41:58;;;;;;;10.73;6.00;;;15.00;69.10;;;;;;5013427;28;20207;-60
2023/10/18 02:44:29;;;;;;;10.97;5.33;;;15.00;68.00;;;;;;5018544;28;20337;-60
2023/10/18 02:47:10;;;;;;;9.10;5.53;;;14.90;67.80;;;;;;5020505;28;20836;-60
2023/10/18 02:49:40;;;;;;;11.73;6.20;;;14.90;67.60;;;;;;5024457;28;20191;-60
2023/10/18 02:52:09;;;;;;;6.90;5.50;;;14.90;67.80;;;;;;5018928;28;20207;-60
2023/10/18 02:54:39;;;;;;;9.03;6.23;;;14.90;67.90;;;;;;5023071;28;20192;-60
2023/10/18 02:57:07;;;;;;;7.97;6.10;;;14.80;67.80;;;;;;5008565;28;20310;-60
2023/10/18 02:59:35;;;;;;;7.87;5.53;;;14.80;67.70;;;;;;5004757;28;20310;-60
2023/10/18 03:02:09;;;;;;;9.27;6.27;;;14.80;68.10;;;;;;5006788;28;20261;-60
2023/10/18 03:04:39;;;;;;;14.30;6.70;;;14.80;68.40;;;;;;5023437;28;20613;-60
2023/10/18 03:07:08;;;;;;;7.47;5.40;;;14.80;68.10;;;;;;5030081;28;20314;-60
2023/10/18 03:12:03;;;;;;;10.33;6.40;;;14.70;68.10;;;;;;5029184;28;20231;-60
2023/10/18 03:14:39;;;;;;;8.60;6.67;;;14.70;68.40;;;;;;5020456;28;20253;-60
2023/10/18 03:19:50;;;;;;;11.93;6.23;;;14.70;68.60;;;;;;5027843;28;20207;-60
2023/10/18 03:22:22;;;;;;;9.90;6.77;;;14.70;68.60;;;;;;5024665;28;20298;-60
2023/10/18 03:24:59;;;;;;;9.93;6.37;;;14.70;68.40;;;;;;5026571;28;20281;-59
2023/10/18 03:27:41;;;;;;;14.13;7.07;;;14.70;68.60;;;;;;5027482;28;20690;-59
2023/10/18 03:30:17;;;;;;;10.50;6.57;;;14.70;68.30;;;;;;5016882;28;20586;-60
2023/10/18 03:32:50;;;;;;;11.70;6.67;;;14.70;68.20;;;;;;5026702;28;20207;-60
2023/10/18 03:35:20;;;;;;;14.70;6.93;;;14.70;68.40;;;;;;5025529;28;20253;-60
2023/10/18 03:37:50;;;;;;;13.93;5.80;;;14.70;68.50;;;;;;5011538;28;20200;-60
2023/10/18 03:40:20;;;;;;;15.30;6.30;;;14.70;68.50;;;;;;5030510;28;20207;-60
2023/10/18 03:42:53;;;;;;;10.73;6.23;;;14.70;68.40;;;;;;5006523;28;20547;-60
2023/10/18 03:45:33;;;;;;;9.27;6.63;;;14.70;68.40;;;;;;5026923;28;20213;-60
2023/10/18 03:48:12;;;;;;;10.20;6.53;;;14.80;68.20;;;;;;5024092;28;20558;-60
2023/10/18 03:50:47;;;;;;;11.83;6.80;;;14.80;67.80;;;;;;5028973;28;20207;-60
2023/10/18 03:53:18;;;;;;;13.80;6.70;;;14.80;67.60;;;;;;5011991;28;20286;-60
2023/10/18 03:55:45;;;;;;;10.37;6.47;;;14.80;67.10;;;;;;5025174;28;20196;-60
2023/10/18 03:58:22;;;;;;;11.43;6.47;;;14.80;67.10;;;;;;5027162;28;20195;-60
2023/10/18 04:00:54;;;;;;;13.53;7.47;;;14.80;67.10;;;;;;5031098;28;20209;-60
2023/10/18 04:03:27;;;;;;;7.97;5.57;;;14.80;67.10;;;;;;5031918;28;20804;-60
2023/10/18 04:05:56;;;;;;;13.83;6.77;;;14.80;66.80;;;;;;5027241;28;20199;-60
2023/10/18 04:08:23;;;;;;;10.87;6.30;;;14.80;67.00;;;;;;5029752;28;20592;-60
2023/10/18 04:10:59;;;;;;;8.80;6.93;;;14.70;66.90;;;;;;5025277;28;20306;-60
2023/10/18 04:13:31;;;;;;;10.20;6.53;;;14.70;67.10;;;;;;5024629;28;20298;-60
2023/10/18 04:16:09;;;;;;;12.20;6.67;;;14.70;66.60;;;;;;5024726;28;20194;-60
2023/10/18 04:18:41;;;;;;;11.53;7.30;;;14.70;66.60;;;;;;5026601;28;20207;-60
2023/10/18 04:21:15;;;;;;;10.90;6.73;;;14.70;66.80;;;;;;5022890;28;20274;-60
2023/10/18 04:23:49;;;;;;;12.53;7.23;;;14.70;67.50;;;;;;5025085;28;20241;-60
2023/10/18 04:26:18;;;;;;;14.40;7.70;;;14.60;66.70;;;;;;5024838;28;20204;-60
2023/10/18 04:28:48;;;;;;;7.17;6.20;;;14.60;66.80;;;;;;5026732;28;20225;-60
2023/10/18 04:31:21;;;;;;;11.70;7.23;;;14.60;67.00;;;;;;5024015;28;20625;-60
2023/10/18 04:33:50;;;;;;;13.33;7.37;;;14.60;67.20;;;;;;5026063;28;20213;-60
2023/10/18 04:36:20;;;;;;;11.47;6.73;;;14.60;67.80;;;;;;5027694;28;20653;-60
2023/10/18 04:38:52;;;;;;;9.73;6.80;;;14.60;68.50;;;;;;5022384;28;20257;-60
2023/10/18 04:44:10;;;;;;;11.07;7.03;;;14.60;69.00;;;;;;5026138;28;20291;-60
2023/10/18 04:46:47;;;;;;;12.57;7.10;;;14.50;69.60;;;;;;5021910;28;20199;-60
2023/10/18 04:54:16;;;;;;;15.53;7.80;;;14.40;72.00;;;;;;5020749;28;20215;-60
2023/10/18 04:56:47;;;;;;;15.77;7.43;;;14.40;72.70;;;;;;5028314;28;20256;-60
2023/10/18 05:04:24;;;;;;;9.77;7.83;;;14.30;73.40;;;;;;5027153;28;20318;-61
2023/10/18 05:07:00;;;;;;;11.73;7.33;;;14.20;73.70;;;;;;5030167;28;20195;-60
2023/10/18 05:09:46;;;;;;;14.80;8.67;;;14.20;74.10;;;;;;5024879;28;20199;-60
2023/10/18 05:17:30;;;;;;;11.03;7.20;;;14.20;74.90;;;;;;5021019;28;20240;-60
2023/10/18 05:19:57;;;;;;;12.67;8.40;;;14.20;75.10;;;;;;5024952;28;20229;-61
2023/10/18 05:22:25;;;;;;;12.00;8.13;;;14.20;75.60;;;;;;5015954;28;20214;-60
2023/10/18 05:25:22;;;;;;;11.07;8.43;;;14.20;75.70;;;;;;5020073;28;20207;-60
2023/10/18 05:28:15;;;;;;;11.17;9.00;;;14.20;75.90;;;;;;5018475;28;20281;-60
2023/10/18 05:43:59;;;;;;;13.37;10.00;;;14.00;77.20;;;;;;5018801;28;20230;-60
2023/10/18 05:46:38;;;;;;;11.10;9.60;;;14.00;76.50;;;;;;5026897;28;20292;-61
2023/10/18 05:49:23;;;;;;;13.13;8.83;;;14.00;76.40;;;;;;5004624;28;20691;-61
2023/10/18 05:52:15;;;;;;;13.23;8.73;;;13.90;76.60;;;;;;5019756;28;20199;-61
2023/10/18 05:54:45;;;;;;;14.77;9.73;;;13.80;76.80;;;;;;5030241;28;20203;-61
2023/10/18 05:57:16;;;;;;;11.23;9.33;;;13.70;77.10;;;;;;5022054;28;20211;-60
2023/10/18 05:59:48;;;;;;;13.27;9.03;;;13.60;77.50;;;;;;5022686;28;20212;-60
2023/10/18 06:02:27;;;;;;;16.03;9.53;;;13.60;77.80;;;;;;5022426;28;20306;-60
2023/10/18 06:04:57;;;;;;;14.13;9.83;;;13.60;78.00;;;;;;5026918;28;20194;-60
2023/10/18 06:07:24;;;;;;;12.90;9.77;;;13.50;78.00;;;;;;5024564;28;20318;-60
2023/10/18 06:12:38;;;;;;;10.93;9.27;;;13.50;77.90;;;;;;5025165;28;20202;-60
2023/10/18 06:15:30;;;;;;;13.00;9.70;;;13.50;77.90;;;;;;4989012;28;20284;-60
2023/10/18 06:18:00;;;;;;;11.13;9.13;;;13.50;78.10;;;;;;4988020;28;20208;-61
2023/10/18 06:20:36;;;;;;;14.33;10.03;;;13.50;78.20;;;;;;4980047;28;20231;-60
2023/10/18 06:23:09;;;;;;;13.17;9.77;;;13.50;78.50;;;;;;4985064;28;20612;-60
2023/10/18 06:25:50;;;;;;;14.50;10.13;;;13.50;78.80;;;;;;4985358;28;20533;-60
2023/10/18 06:28:21;;;;;;;14.00;10.13;;;13.50;79.00;;;;;;4981766;28;20227;-60
2023/10/18 06:30:56;;;;;;;13.23;9.53;;;13.50;79.30;;;;;;4987023;28;20212;-61
2023/10/18 06:33:26;;;;;;;16.20;10.00;;;13.50;79.50;;;;;;4981085;28;20254;-60
2023/10/18 06:35:53;;;;;;;16.07;9.63;;;13.50;79.60;;;;;;4982646;28;20275;-60
2023/10/18 06:38:24;;;;;;;16.60;11.27;;;13.60;79.40;;;;;;4983436;28;20208;-60
2023/10/18 06:43:36;;;;;;;11.17;9.53;;;13.50;78.70;;;;;;4984563;28;20290;-59
2023/10/18 06:46:04;;;;;;;17.57;9.97;;;13.50;78.70;;;;;;4984682;28;20259;-60
2023/10/18 06:48:37;;;;;;;14.10;9.33;;;13.60;78.80;;;;;;4982221;28;20537;-60
2023/10/18 06:51:11;;;;;;;12.47;8.73;;;13.60;78.90;;;;;;4987672;28;20309;-60
2023/10/18 06:53:38;;;;;;;11.97;9.63;;;13.60;78.80;;;;;;4992621;28;20652;-60
2023/10/18 06:56:19;;;;;;;13.20;9.70;;;13.60;78.60;;;;;;4984537;28;20215;-59
2023/10/18 06:58:47;;;;;;;16.33;9.70;;;13.60;78.70;;;;;;4988968;28;20204;-59
2023/10/18 07:01:19;;;;;;;10.97;9.07;;;13.70;78.90;;;;;;4985434;28;20205;-60
2023/10/18 07:03:48;;;;;;;13.60;10.13;;;13.70;79.00;;;;;;4983081;28;20267;-60
2023/10/18 07:06:24;;;;;;;13.57;9.63;;;13.70;78.50;;;;;;4981468;28;20203;-60
2023/10/18 07:08:52;;;;;;;10.50;8.37;;;13.70;78.40;;;;;;4985757;28;20648;-60
2023/10/18 07:11:19;;;;;;;11.40;9.00;;;13.80;78.30;;;;;;4982925;28;20227;-60
2023/10/18 07:13:55;;;;;;;14.07;9.33;;;13.80;78.10;;;;;;5002875;28;20767;-60
2023/10/18 07:16:33;;;;;;;11.97;8.83;;;13.90;77.80;;;;;;5023650;28;20222;-60
2023/10/18 07:19:25;;;;;;;11.53;8.57;;;13.90;77.60;;;;;;5021419;28;20204;-60
2023/10/18 07:22:04;;;;;;;9.37;8.33;;;13.90;77.50;;;;;;5021825;28;20574;-60
2023/10/18 07:24:36;;;;;;;11.83;8.13;;;13.90;77.20;;;;;;5021952;28;20259;-60
2023/10/18 07:27:09;;;;;;;15.30;8.30;;;13.90;77.30;;;;;;5019803;28;20203;-60
2023/10/18 07:29:37;;;;;;;11.17;9.27;;;13.90;77.60;;;;;;5021892;28;20671;-60
2023/10/18 07:32:12;;;;;;;12.63;8.03;;;13.90;77.60;;;;;;5017474;28;20659;-60
2023/10/18 07:34:43;;;;;;;11.70;8.37;;;14.00;77.90;;;;;;5024925;28;20544;-60
2023/10/18 07:37:24;;;;;;;13.33;8.10;;;14.00;77.80;;;;;;5018564;28;20283;-60
2023/10/18 07:39:59;;;;;;;13.50;8.80;;;14.00;77.60;;;;;;5020189;28;20618;-60
2023/10/18 07:42:27;;;;;;;16.23;8.83;;;14.00;77.60;;;;;;5020592;28;20199;-60
2023/10/18 07:45:03;;;;;;;13.17;9.00;;;14.10;77.70;;;;;;5019025;28;20538;-60
2023/10/18 07:47:37;;;;;;;11.13;9.03;;;14.10;77.70;;;;;;5020990;28;20283;-60
2023/10/18 07:52:56;;;;;;;17.10;8.80;;;14.20;78.30;;;;;;5023429;28;20199;-60
2023/10/18 07:55:24;;;;;;;12.77;9.73;;;14.20;78.20;;;;;;5023774;28;20210;-60
2023/10/18 07:57:54;;;;;;;13.43;10.10;;;14.30;78.30;;;;;;5031507;28;20273;-60
2023/10/18 08:00:22;;;;;;;12.13;8.53;;;14.30;78.60;;;;;;5028488;28;20634;-61
2023/10/18 08:02:50;;;;;;;11.47;9.27;;;14.40;78.80;;;;;;5032969;28;20253;-60
2023/10/18 08:05:24;;;;;;;15.37;10.20;;;14.40;78.20;;;;;;5028160;28;20211;-60
2023/10/18 08:07:55;;;;;;;10.23;8.90;;;14.40;78.10;;;;;;5029756;28;20229;-60
2023/10/18 08:10:22;;;;;;;13.80;9.33;;;14.40;78.30;;;;;;5027860;28;21073;-60
2023/10/18 08:13:11;;;;;;;14.43;9.40;;;14.50;78.20;;;;;;5026396;28;20272;-60
2023/10/18 08:15:38;;;;;;;12.27;8.77;;;14.40;78.20;;;;;;5021127;28;20199;-60
2023/10/18 08:18:15;;;;;;;11.10;9.23;;;14.40;78.40;;;;;;5027284;28;20546;-60
2023/10/18 08:23:40;;;;;;;21.00;8.23;;;14.40;78.50;;;;;;5025611;28;20667;-60
2023/10/18 08:26:04;;;;;;;11.50;9.00;;;14.40;78.50;;;;;;5024788;28;20694;-60
2023/10/18 08:28:53;;;;;;;14.50;9.17;;;14.40;78.40;;;;;;5023652;28;20251;-61
2023/10/18 08:31:32;;;;;;;24.87;9.57;;;14.50;78.60;;;;;;5028707;28;20202;-60
2023/10/18 08:34:15;;;;;;;10.97;8.93;;;14.50;78.40;;;;;;5020023;28;20225;-60
2023/10/18 08:36:44;;;;;;;11.27;8.13;;;14.50;78.20;;;;;;5024316;28;20202;-60
2023/10/18 08:39:12;;;;;;;11.43;8.77;;;14.60;78.00;;;;;;5027526;28;20206;-60
2023/10/18 08:42:12;;;;;;;10.23;8.23;;;14.60;77.90;;;;;;5020441;28;20211;-60
2023/10/18 08:44:41;;;;;;;13.13;8.70;;;14.70;77.70;;;;;;5024981;28;20202;-60
2023/10/18 08:49:49;;;;;;;13.43;8.97;;;14.70;76.90;;;;;;5023371;28;20234;-60
2023/10/18 08:52:20;;;;;;;10.43;7.87;;;14.80;76.40;;;;;;5024753;28;20282;-60
2023/10/18 08:54:48;;;;;;;11.20;7.97;;;14.80;76.00;;;;;;5028640;28;20285;-60
2023/10/18 08:57:24;;;;;;;9.87;7.33;;;14.80;75.60;;;;;;5022772;28;20207;-60
2023/10/18 08:59:52;;;;;;;8.20;7.33;;;14.90;75.10;;;;;;5023947;28;20210;-60
2023/10/18 09:02:23;;;;;;;11.83;6.87;;;14.90;74.70;;;;;;5030479;28;20221;-60
2023/10/18 09:04:54;;;;;;;9.60;7.27;;;14.90;74.50;;;;;;5012456;28;20200;-60
2023/10/18 09:07:42;;;;;;;7.43;6.23;;;15.00;74.30;;;;;;5003301;28;20276;-60
2023/10/18 09:10:32;;;;;;;8.93;7.13;;;15.00;74.00;;;;;;5024537;28;20296;-60
2023/10/18 09:16:01;;;;;;;12.80;6.33;;;15.10;72.70;;;;;;5026991;28;20256;-60
2023/10/18 09:18:32;;;;;;;8.57;6.33;;;15.20;72.40;;;;;;5020044;28;20204;-60
2023/10/18 09:21:17;;;;;;;12.53;7.23;;;15.20;72.10;;;;;;5023947;28;20538;-60
2023/10/18 09:23:49;;;;;;;14.57;6.67;;;15.30;71.00;;;;;;5023023;28;20208;-60
2023/10/18 09:26:26;;;;;;;11.60;6.27;;;15.30;71.30;;;;;;5023781;28;20206;-60
2023/10/18 09:28:59;;;;;;;10.53;7.03;;;15.30;71.30;;;;;;5025365;28;20798;-60
2023/10/18 09:31:28;;;;;;;10.67;6.27;;;15.30;71.60;;;;;;5019120;28;20262;-60
2023/10/18 09:33:58;;;;;;;9.53;7.47;;;15.40;71.60;;;;;;5022652;28;20198;-60
2023/10/18 09:36:27;;;;;;;10.50;6.60;;;15.40;71.10;;;;;;5023187;28;20200;-60
2023/10/18 09:38:56;;;;;;;12.20;6.60;;;15.40;71.20;;;;;;5019493;28;20204;-60
2023/10/18 09:41:26;;;;;;;7.43;5.70;;;15.40;71.10;;;;;;5023761;28;20261;-60
2023/10/18 09:44:01;;;;;;;8.67;6.43;;;15.40;71.00;;;;;;5025648;28;20516;-60
2023/10/18 09:46:29;;;;;;;10.43;6.50;;;15.50;71.00;;;;;;5020870;28;20238;-60
2023/10/18 09:48:59;;;;;;;11.37;6.43;;;15.50;71.30;;;;;;5025703;28;20234;-60
2023/10/18 09:51:31;;;;;;;11.23;6.00;;;15.40;70.80;;;;;;5024486;28;20593;-60
2023/10/18 09:54:01;;;;;;;7.00;6.13;;;15.40;70.60;;;;;;5023508;28;20269;-61
2023/10/18 09:56:34;;;;;;;9.20;5.90;;;15.40;70.70;;;;;;5025146;28;20210;-60
2023/10/18 09:59:05;;;;;;;11.53;6.00;;;15.40;70.60;;;;;;5026869;28;20203;-60
2023/10/18 10:04:12;;;;;;;11.10;6.17;;;15.50;71.10;;;;;;5023258;28;20563;-60
2023/10/18 10:06:45;;;;;;;7.00;5.97;;;15.50;71.50;;;;;;5021845;28;20215;-60
2023/10/18 10:09:17;;;;;;;12.40;5.97;;;15.50;71.60;;;;;;5020024;28;20740;-60
2023/10/18 10:11:48;;;;;;;8.27;5.60;;;15.60;70.70;;;;;;5021666;28;20206;-60
2023/10/18 10:14:17;;;;;;;7.80;5.97;;;15.60;69.80;;;;;;5019770;28;20254;-60
2023/10/18 10:17:01;;;;;;;9.03;5.60;;;15.60;69.30;;;;;;5019695;28;20203;-60
2023/10/18 10:19:44;;;;;;;10.33;5.97;;;15.60;69.30;;;;;;5024807;28;20529;-60
2023/10/18 10:22:17;;;;;;;7.40;5.07;;;15.70;69.90;;;;;;5018159;28;20204;-60
2023/10/18 10:24:51;;;;;;;8.03;5.93;;;15.70;69.80;;;;;;5023624;28;20280;-60
2023/10/18 10:32:58;;;;;;;8.57;6.03;;;15.90;68.70;;;;;;5022915;28;20708;-60
2023/10/18 10:35:29;;;;;;;8.47;5.57;;;15.90;68.80;;;;;;5020972;28;20202;-60
2023/10/18 10:38:06;;;;;;;6.10;5.40;;;15.90;68.90;;;;;;5024135;28;20195;-60
2023/10/18 10:43:14;;;;;;;9.93;6.00;;;16.10;68.00;;;;;;5021148;28;20212;-60
2023/10/18 10:48:17;;;;;;;10.47;6.87;;;16.10;66.90;;;;;;5027451;28;20195;-61
2023/10/18 10:50:50;;;;;;;10.73;6.60;;;16.00;67.00;;;;;;5025727;28;20210;-60
2023/10/18 10:53:36;;;;;;;9.80;5.80;;;16.00;67.20;;;;;;5024294;28;20203;-60
2023/10/18 10:56:19;;;;;;;7.83;5.77;;;16.00;67.20;;;;;;5023989;28;20191;-60
2023/10/18 10:59:03;;;;;;;7.70;5.67;;;15.90;67.40;;;;;;5025096;28;20203;-60
2023/10/18 11:01:39;;;;;;;8.67;6.63;;;16.00;67.70;;;;;;5019507;28;20213;-60
2023/10/18 11:04:29;;;;;;;7.00;5.47;;;16.00;67.90;;;;;;5023543;28;20200;-60
2023/10/18 11:07:08;;;;;;;8.27;5.70;;;16.00;67.70;;;;;;5022121;28;20211;-60
2023/10/18 11:09:39;;;;;;;10.20;6.07;;;16.10;67.60;;;;;;5020196;28;20302;-60
2023/10/18 11:12:08;;;;;;;8.63;5.67;;;16.10;67.80;;;;;;5021757;28;20587;-60
2023/10/18 11:14:41;;;;;;;12.33;5.90;;;16.10;67.50;;;;;;5023810;28;20279;-60
2023/10/18 11:19:53;;;;;;;8.33;5.20;;;16.10;67.30;;;;;;5017027;28;20700;-60
2023/10/18 11:22:24;;;;;;;9.67;5.53;;;16.10;68.30;;;;;;5022449;28;20265;-60
2023/10/18 11:24:55;;;;;;;7.17;5.60;;;16.10;67.70;;;;;;5022064;28;20231;-60
2023/10/18 11:27:33;;;;;;;10.10;5.27;;;16.10;68.00;;;;;;5022970;28;20196;-60
2023/10/18 11:32:46;;;;;;;10.87;6.27;;;16.10;68.10;;;;;;5023149;28;20196;-60
2023/10/18 11:35:18;;;;;;;8.23;5.63;;;16.10;68.30;;;;;;5027466;28;20274;-60
2023/10/18 11:37:47;;;;;;;13.30;5.90;;;16.00;68.50;;;;;;5027826;28;20269;-60
2023/10/18 11:40:21;;;;;;;11.03;7.17;;;16.00;69.00;;;;;;5022586;28;20207;-60
2023/10/18 11:43:05;;;;;;;7.70;6.67;;;16.00;69.20;;;;;;5027328;28;20298;-60
2023/10/18 11:45:32;;;;;;;11.20;7.13;;;15.90;70.00;;;;;;5012405;28;20548;-61
2023/10/18 11:48:02;;;;;;;10.30;7.43;;;15.90;70.50;;;;;;5028132;28;20214;-60
2023/10/18 11:50:50;;;;;;;8.10;6.60;;;15.80;71.00;;;;;;5025201;28;20269;-60
2023/10/18 11:53:24;;;;;;;8.03;6.90;;;15.80;72.10;;;;;;5029261;28;20246;-60
2023/10/18 11:55:58;;;;;;;13.83;7.60;;;15.80;72.40;;;;;;5026278;28;20227;-60
2023/10/18 11:58:31;;;;;;;13.27;7.00;;;15.80;72.80;;;;;;5030714;28;20195;-60
2023/10/18 12:01:16;;;;;;;11.20;8.03;;;15.80;72.80;;;;;;5009656;28;20540;-60
2023/10/18 12:03:48;;;;;;;16.33;7.80;;;15.80;73.20;;;;;;5009657;28;20299;-60
2023/10/18 12:06:20;;;;;;;11.67;8.00;;;15.80;73.40;;;;;;5028043;28;20225;-59
2023/10/18 12:09:07;;;;;;;9.60;7.40;;;15.80;73.70;;;;;;5022167;28;20223;-60
2023/10/18 12:11:41;;;;;;;12.43;8.50;;;15.80;74.10;;;;;;5023529;28;20509;-60
2023/10/18 12:14:10;;;;;;;13.87;8.13;;;15.70;74.50;;;;;;5015601;28;20234;-60
2023/10/18 12:16:37;;;;;;;9.30;6.73;;;15.70;74.70;;;;;;5026309;28;20203;-60
2023/10/18 12:19:06;;;;;;;12.00;7.77;;;15.70;75.00;;;;;;5026352;28;20210;-60
2023/10/18 12:21:37;;;;;;;18.70;9.37;;;15.70;75.30;;;;;;5026018;28;20231;-60
2023/10/18 12:24:07;;;;;;;15.27;8.53;;;15.70;75.50;;;;;;5023616;28;20560;-60
2023/10/18 12:26:40;;;;;;;9.40;6.80;;;15.70;75.60;;;;;;5026626;28;20221;-60
2023/10/18 12:29:07;;;;;;;11.40;7.87;;;15.70;75.60;;;;;;5026098;28;20603;-60
2023/10/18 12:31:39;;;;;;;12.80;7.13;;;15.70;75.80;;;;;;5024351;28;20280;-60
2023/10/18 12:34:08;;;;;;;12.23;7.67;;;15.70;75.80;;;;;;5029062;28;20202;-60
2023/10/18 12:36:38;;;;;;;9.37;7.47;;;15.70;75.90;;;;;;5020814;28;20638;-60
2023/10/18 12:39:09;;;;;;;18.00;7.20;;;15.70;75.90;;;;;;5023846;28;20196;-60
2023/10/18 12:41:39;;;;;;;12.73;8.03;;;15.70;76.10;;;;;;5029893;28;20252;-60
2023/10/18 12:44:41;;;;;;;9.50;7.37;;;15.70;76.20;;;;;;5022715;28;20649;-60
2023/10/18 12:47:09;;;;;;;12.37;8.10;;;15.70;76.40;;;;;;5023743;28;20525;-60
2023/10/18 12:49:44;;;;;;;15.63;8.67;;;15.70;76.20;;;;;;5025127;28;20279;-60
2023/10/18 12:52:41;;;;;;;19.47;8.17;;;15.70;76.40;;;;;;5025974;28;20194;-60
2023/10/18 12:55:32;;;;;;;13.47;7.73;;;15.70;76.50;;;;;;5022501;28;20292;-60
2023/10/18 12:57:59;;;;;;;10.10;7.67;;;15.60;76.70;;;;;;5026647;28;20203;-60
2023/10/18 13:00:32;;;;;;;11.00;7.30;;;15.70;76.80;;;;;;5025686;28;20698;-59
2023/10/18 13:05:40;;;;;;;11.27;7.43;;;15.70;77.00;;;;;;5025377;28;20266;-60
2023/10/18 13:08:55;;;;;;;10.87;6.07;;;15.70;76.70;;;;;;5022404;28;20207;-60
2023/10/18 13:13:34;;;;;;;11.10;7.00;;;15.80;76.10;;;;;;5023887;28;20274;-60
2023/10/18 13:16:01;;;;;;;9.97;5.77;;;15.80;76.20;;;;;;5028312;28;20198;-60
2023/10/18 13:18:28;;;;;;;17.90;7.50;;;15.90;76.10;;;;;;5023462;28;20295;-60
2023/10/18 13:20:55;;;;;;;12.77;6.77;;;15.90;75.60;;;;;;5017199;28;20230;-60
2023/10/18 13:23:27;;;;;;;7.77;6.50;;;15.90;75.40;;;;;;5016475;28;20238;-60
2023/10/18 13:25:54;;;;;;;9.10;6.47;;;15.80;74.70;;;;;;5022642;28;20291;-60
2023/10/18 13:28:24;;;;;;;13.57;6.70;;;15.80;74.80;;;;;;5022235;28;20207;-60
2023/10/18 13:30:54;;;;;;;10.17;5.90;;;15.70;74.40;;;;;;5027721;28;20230;-60
2023/10/18 13:33:22;;;;;;;8.80;6.03;;;15.70;74.40;;;;;;5022010;28;20211;-61
2023/10/18 13:35:51;;;;;;;9.37;6.30;;;15.60;73.80;;;;;;5022378;28;20520;-60
2023/10/18 13:38:23;;;;;;;12.57;6.40;;;15.60;74.10;;;;;;5027592;28;20191;-60
2023/10/18 13:40:51;;;;;;;9.60;6.40;;;15.60;74.30;;;;;;5019147;28;20212;-60
2023/10/18 13:43:18;;;;;;;9.33;6.43;;;15.60;74.50;;;;;;5009083;28;20210;-60
2023/10/18 13:45:59;;;;;;;13.63;7.53;;;15.60;75.40;;;;;;5022467;28;20215;-60
2023/10/18 13:48:26;;;;;;;12.30;7.13;;;15.70;74.10;;;;;;5025362;28;20191;-60
2023/10/18 13:50:58;;;;;;;11.90;6.77;;;15.70;73.90;;;;;;5020048;28;20224;-60
2023/10/18 13:53:28;;;;;;;8.50;6.73;;;15.70;73.70;;;;;;5025016;28;20658;-60
2023/10/18 13:55:59;;;;;;;11.37;7.00;;;15.70;73.50;;;;;;5025642;28;20670;-60
2023/10/18 13:58:29;;;;;;;11.20;6.83;;;15.70;73.20;;;;;;5024363;28;20219;-60
2023/10/18 14:00:56;;;;;;;12.13;6.10;;;15.70;72.60;;;;;;5025756;28;20269;-60
2023/10/18 14:03:27;;;;;;;9.17;5.87;;;15.70;72.10;;;;;;5023885;28;20591;-60
2023/10/18 14:05:55;;;;;;;11.40;6.73;;;15.70;71.80;;;;;;5019783;28;20200;-60
2023/10/18 14:08:22;;;;;;;7.93;6.23;;;15.70;72.20;;;;;;5020512;28;20648;-60
2023/10/18 14:10:54;;;;;;;11.40;6.57;;;15.70;72.50;;;;;;5021794;28;20219;-60
2023/10/18 14:13:23;;;;;;;8.10;6.47;;;15.70;72.10;;;;;;5021140;28;20234;-60
2023/10/18 14:15:50;;;;;;;12.83;6.57;;;15.60;71.70;;;;;;5023518;28;20342;-60
2023/10/18 14:18:19;;;;;;;9.67;7.63;;;15.60;71.60;;;;;;5018110;28;20233;-60
2023/10/18 14:20:53;;;;;;;11.40;6.93;;;15.60;71.90;;;;;;5024244;28;20211;-60
2023/10/18 14:23:27;;;;;;;9.73;7.90;;;15.50;71.70;;;;;;5021939;28;20204;-60
2023/10/18 14:25:55;;;;;;;9.77;6.83;;;15.40;72.10;;;;;;5022122;28;20194;-60
2023/10/18 14:28:25;;;;;;;11.10;7.10;;;15.40;72.70;;;;;;5027024;28;20207;-60
2023/10/18 14:30:55;;;;;;;9.20;6.50;;;15.50;72.80;;;;;;5018667;28;20219;-60
2023/10/18 14:33:22;;;;;;;11.77;7.13;;;15.50;72.70;;;;;;5022096;28;20302;-60
2023/10/18 14:36:08;;;;;;;8.97;6.53;;;15.50;72.90;;;;;;5026847;28;20767;-60